Time;durP1;ratioP1;P1;durP2;ratioP2;P2;SDS_P1;SDS_P2;PMS_P1;PMS_P2;Temp;Humidity;BMP_temperature;BMP_pressure;BME280_temperature;BME280_humidity;BME280_pressure;Samples;Min_cycle;Max_cycle;Signal;HPM_P1;HPM_P2
2023/04/09 00:00:12;;;;;;;29.73;23.73;;;;;;;4.50;100.00;96947.88;5027474;28;105705;-64
2023/04/09 00:02:42;;;;;;;32.63;24.10;;;;;;;4.44;100.00;96948.66;5026093;27;102026;-64
2023/04/09 00:05:10;;;;;;;29.47;23.40;;;;;;;4.49;100.00;96939.19;5030873;28;104770;-64
2023/04/09 00:07:37;;;;;;;31.00;22.93;;;;;;;4.54;100.00;96943.84;5027605;28;101937;-64
2023/04/09 00:10:04;;;;;;;32.73;23.17;;;;;;;4.59;100.00;96946.69;5061990;27;104009;-64
2023/04/09 00:12:31;;;;;;;30.23;23.47;;;;;;;4.64;100.00;96939.78;5027413;28;105884;-64
2023/04/09 00:14:59;;;;;;;31.53;23.63;;;;;;;4.63;100.00;96942.66;5027696;28;101957;-64
2023/04/09 00:17:26;;;;;;;29.37;22.67;;;;;;;4.63;100.00;96947.91;5027451;28;105276;-64
2023/04/09 00:19:53;;;;;;;28.10;21.87;;;;;;;4.60;100.00;96943.03;5028667;27;103280;-64
2023/04/09 00:22:21;;;;;;;28.37;23.17;;;;;;;4.66;100.00;96942.22;5028860;27;101818;-64
2023/04/09 00:24:48;;;;;;;30.10;22.77;;;;;;;4.61;100.00;96942.00;5029051;27;101812;-64
2023/04/09 00:27:16;;;;;;;31.87;22.97;;;;;;;4.62;100.00;96933.09;5031858;27;103088;-64
2023/04/09 00:29:42;;;;;;;30.13;23.57;;;;;;;4.62;100.00;96939.19;5027648;28;104865;-64
2023/04/09 00:32:09;;;;;;;32.80;24.47;;;;;;;4.58;100.00;96940.59;5026848;28;105295;-64
2023/04/09 00:34:37;;;;;;;31.13;23.23;;;;;;;4.48;100.00;96937.53;5027641;28;101786;-64
2023/04/09 00:37:04;;;;;;;31.40;23.87;;;;;;;4.50;100.00;96932.06;5027306;28;105365;-64
2023/04/09 00:39:33;;;;;;;28.40;21.83;;;;;;;4.48;100.00;96940.16;5026593;28;105209;-64
2023/04/09 00:42:01;;;;;;;30.07;23.30;;;;;;;4.50;100.00;96937.34;5027501;28;101897;-64
2023/04/09 00:44:28;;;;;;;30.27;23.07;;;;;;;4.54;100.00;96933.31;5027453;28;104884;-64
2023/04/09 00:46:55;;;;;;;28.03;21.83;;;;;;;4.57;100.00;96938.97;5026907;28;104397;-64
2023/04/09 00:49:23;;;;;;;30.20;22.27;;;;;;;4.65;100.00;96938.78;5030542;28;101769;-64
2023/04/09 00:51:50;;;;;;;29.50;22.07;;;;;;;4.59;100.00;96939.56;5026546;28;105900;-64
2023/04/09 00:54:17;;;;;;;28.50;21.53;;;;;;;4.50;100.00;96940.78;5027094;28;101851;-64
2023/04/09 00:56:46;;;;;;;27.83;21.27;;;;;;;4.44;100.00;96938.97;5027328;28;105285;-64
2023/04/09 00:59:13;;;;;;;27.50;20.63;;;;;;;4.50;100.00;96943.44;5026274;28;105496;-64
2023/04/09 01:01:41;;;;;;;26.53;20.53;;;;;;;4.45;100.00;96945.00;5027244;28;101985;-64
2023/04/09 01:04:10;;;;;;;26.97;20.00;;;;;;;4.44;100.00;96943.41;5029494;28;104083;-64
2023/04/09 01:06:43;;;;;;;27.93;20.83;;;;;;;4.42;100.00;96940.97;5029927;28;105513;-64
2023/04/09 01:09:16;;;;;;;28.47;21.07;;;;;;;4.37;100.00;96947.84;5030435;28;101904;-64
2023/04/09 01:11:50;;;;;;;27.67;20.93;;;;;;;4.31;100.00;96948.63;5033490;28;104820;-64
2023/04/09 01:14:24;;;;;;;25.90;19.87;;;;;;;4.29;100.00;96942.75;5030421;28;102078;-64
2023/04/09 01:17:00;;;;;;;25.37;19.20;;;;;;;4.30;100.00;96947.00;5030368;28;105125;-64
2023/04/09 01:19:42;;;;;;;25.07;19.40;;;;;;;4.37;100.00;96947.84;5013061;28;106483;-64
2023/04/09 01:22:22;;;;;;;27.57;19.97;;;;;;;4.37;100.00;96946.00;5064480;27;101972;-64
2023/04/09 01:25:00;;;;;;;28.77;20.13;;;;;;;4.53;100.00;96944.84;5030148;28;105244;-64
2023/04/09 01:27:44;;;;;;;28.13;20.83;;;;;;;4.56;100.00;96947.88;5029875;28;103899;-64
2023/04/09 01:30:16;;;;;;;30.97;22.03;;;;;;;4.56;100.00;96947.88;5030276;28;101836;-64
2023/04/09 01:32:44;;;;;;;29.67;21.33;;;;;;;4.62;100.00;96948.91;5030310;28;105023;-64
2023/04/09 01:35:11;;;;;;;29.73;21.97;;;;;;;4.62;100.00;96949.72;5032820;28;105851;-64
2023/04/09 01:37:39;;;;;;;28.03;20.80;;;;;;;4.62;100.00;96956.81;5030037;28;104871;-64
2023/04/09 01:40:08;;;;;;;29.43;21.23;;;;;;;4.50;100.00;96945.22;5029471;28;105331;-64
2023/04/09 01:42:36;;;;;;;28.37;20.93;;;;;;;4.29;100.00;96946.19;5030154;28;101922;-64
2023/04/09 01:45:06;;;;;;;28.63;20.97;;;;;;;4.27;100.00;96944.75;5029854;28;104743;-64
2023/04/09 01:47:35;;;;;;;27.27;20.43;;;;;;;4.28;100.00;96954.28;5029497;28;105629;-64
2023/04/09 01:50:03;;;;;;;30.80;21.43;;;;;;;4.21;100.00;96946.34;5029579;28;101720;-64
2023/04/09 01:52:30;;;;;;;30.03;21.33;;;;;;;4.19;100.00;96947.56;5031222;27;102285;-64
2023/04/09 01:54:58;;;;;;;29.30;21.10;;;;;;;4.11;100.00;96939.84;5029285;28;105768;-64
2023/04/09 01:57:25;;;;;;;29.00;20.27;;;;;;;4.11;100.00;96945.09;5033181;28;103512;-64
2023/04/09 01:59:52;;;;;;;29.80;21.57;;;;;;;4.10;100.00;96946.91;5029274;28;105356;-64
2023/04/09 02:02:24;;;;;;;27.97;20.80;;;;;;;4.10;100.00;96944.28;5029357;28;101908;-64
2023/04/09 02:04:54;;;;;;;29.30;21.23;;;;;;;4.08;100.00;96953.38;5029534;28;105151;-64
2023/04/09 02:07:27;;;;;;;31.30;22.47;;;;;;;4.12;100.00;96949.34;5030518;27;102596;-64
2023/04/09 02:09:55;;;;;;;29.17;21.63;;;;;;;4.06;100.00;96948.34;5029633;28;101797;-64
2023/04/09 02:12:23;;;;;;;29.57;20.97;;;;;;;4.16;100.00;96947.97;5029459;28;105092;-64
2023/04/09 02:14:52;;;;;;;30.03;21.53;;;;;;;4.10;100.00;96951.38;5027928;27;105372;-64
2023/04/09 02:17:19;;;;;;;30.67;22.13;;;;;;;4.11;100.00;96948.56;5032587;28;102102;-64
2023/04/09 02:19:47;;;;;;;29.90;21.43;;;;;;;4.04;100.00;96942.44;5029078;28;104213;-64
2023/04/09 02:22:17;;;;;;;30.10;21.20;;;;;;;4.08;100.00;96945.50;5029172;28;101923;-64
2023/04/09 02:24:46;;;;;;;29.83;21.53;;;;;;;4.01;100.00;96945.47;5029186;28;105278;-64
2023/04/09 02:27:13;;;;;;;30.20;21.03;;;;;;;3.97;100.00;96946.06;5028709;28;105955;-64
2023/04/09 02:29:41;;;;;;;31.23;22.07;;;;;;;3.98;100.00;96945.06;5029241;28;101855;-64
2023/04/09 02:32:08;;;;;;;32.63;22.60;;;;;;;4.03;100.00;96951.34;5029141;28;103938;-64
2023/04/09 02:34:35;;;;;;;31.40;21.63;;;;;;;4.04;100.00;96936.38;5062739;27;105445;-64
2023/04/09 02:37:02;;;;;;;31.73;22.87;;;;;;;4.08;100.00;96940.22;5029090;28;102098;-64
2023/04/09 02:39:30;;;;;;;32.33;22.60;;;;;;;4.09;100.00;96945.31;5031778;28;105180;-64
2023/04/09 02:41:57;;;;;;;30.37;22.63;;;;;;;4.15;100.00;96944.50;5029239;28;101937;-64
2023/04/09 02:44:24;;;;;;;30.57;21.67;;;;;;;4.21;100.00;96942.94;5029173;28;103922;-64
2023/04/09 02:46:51;;;;;;;29.73;21.37;;;;;;;4.25;100.00;96944.16;5028360;28;105693;-64
2023/04/09 02:49:19;;;;;;;30.00;21.30;;;;;;;4.28;100.00;96944.56;5028931;28;101863;-64
2023/04/09 02:51:45;;;;;;;30.03;21.23;;;;;;;4.31;100.00;96952.06;5028890;28;104895;-64
2023/04/09 02:54:13;;;;;;;30.80;22.30;;;;;;;4.25;100.00;96952.84;5028016;28;105964;-64
2023/04/09 02:56:42;;;;;;;34.13;22.70;;;;;;;4.16;100.00;96945.34;5028720;28;101914;-64
2023/04/09 02:59:09;;;;;;;29.90;21.57;;;;;;;4.09;100.00;96955.81;5028766;28;104977;-64
2023/04/09 03:01:36;;;;;;;31.40;21.43;;;;;;;4.14;100.00;96955.25;5031513;28;103849;-64
2023/04/09 03:04:03;;;;;;;31.80;21.37;;;;;;;4.23;100.00;96952.25;5028570;28;105198;-64
2023/04/09 03:06:30;;;;;;;31.77;22.57;;;;;;;4.23;100.00;96948.78;5028255;28;105171;-64
2023/04/09 03:08:57;;;;;;;33.27;22.73;;;;;;;4.14;100.00;96953.41;5028444;28;101892;-64
2023/04/09 03:11:24;;;;;;;31.97;22.67;;;;;;;4.20;100.00;96954.47;5028571;28;105401;-64
2023/04/09 03:13:56;;;;;;;33.63;23.10;;;;;;;4.15;100.00;96959.50;5028043;28;105387;-64
2023/04/09 03:16:25;;;;;;;33.57;22.97;;;;;;;4.01;100.00;96952.56;5028066;28;101901;-64
2023/04/09 03:18:51;;;;;;;33.33;22.27;;;;;;;3.91;100.00;96952.09;5029765;27;102801;-64
2023/04/09 03:21:19;;;;;;;36.67;23.90;;;;;;;3.95;100.00;96959.44;5027379;28;105476;-64
2023/04/09 03:23:49;;;;;;;36.97;23.80;;;;;;;3.96;100.00;96952.31;5032168;28;102178;-64
2023/04/09 03:26:17;;;;;;;33.20;21.73;;;;;;;3.94;100.00;96956.97;5027770;27;104969;-64
2023/04/09 03:28:48;;;;;;;33.73;22.97;;;;;;;3.97;100.00;96949.50;5028389;28;101791;-64
2023/04/09 03:31:16;;;;;;;34.10;23.10;;;;;;;4.03;100.00;96950.53;5028295;28;105612;-64
2023/04/09 03:33:45;;;;;;;36.03;22.70;;;;;;;4.01;100.00;96957.81;5027542;28;105789;-64
2023/04/09 03:36:13;;;;;;;29.40;20.37;;;;;;;4.04;100.00;96944.28;5028254;28;101792;-64
2023/04/09 03:39:02;;;;;;;32.77;21.90;;;;;;;4.11;100.00;96947.75;5028324;28;105558;-64
2023/04/09 03:41:33;;;;;;;32.90;22.33;;;;;;;4.21;100.00;96942.94;5027805;28;105463;-64
2023/04/09 03:44:04;;;;;;;31.37;21.20;;;;;;;4.22;100.00;96952.44;5028050;28;101993;-64
2023/04/09 03:46:41;;;;;;;32.30;22.60;;;;;;;4.25;100.00;96954.69;5031066;28;103936;-64
2023/04/09 03:49:09;;;;;;;29.97;20.90;;;;;;;4.20;100.00;96947.38;5029487;28;101946;-64
2023/04/09 03:51:41;;;;;;;29.60;20.93;;;;;;;4.23;100.00;96959.31;5028290;28;104874;-64
2023/04/09 03:54:08;;;;;;;28.23;19.97;;;;;;;4.15;100.00;96948.97;5027338;28;105404;-64
2023/04/09 03:56:35;;;;;;;30.17;20.50;;;;;;;4.11;100.00;96950.38;5028089;28;101856;-64
2023/04/09 03:59:05;;;;;;;28.03;20.03;;;;;;;4.14;100.00;96947.38;5027740;28;103590;-64
2023/04/09 04:01:43;;;;;;;25.97;19.87;;;;;;;4.11;100.00;96943.31;5027267;28;105609;-64
2023/04/09 04:04:11;;;;;;;28.37;19.80;;;;;;;4.09;100.00;96945.31;5027660;28;101876;-64
2023/04/09 04:06:44;;;;;;;27.97;19.60;;;;;;;4.00;100.00;96943.03;5027949;28;105205;-64
2023/04/09 04:09:34;;;;;;;27.47;19.17;;;;;;;3.89;100.00;96933.91;5030248;27;101897;-64
2023/04/09 04:12:05;;;;;;;27.90;19.60;;;;;;;3.96;100.00;96941.81;5027901;28;105331;-64
2023/04/09 04:15:01;;;;;;;28.17;19.33;;;;;;;4.01;100.00;96942.03;5020275;27;103489;-64
2023/04/09 04:17:37;;;;;;;28.03;19.30;;;;;;;3.96;100.00;96940.00;5027723;28;102098;-64
2023/04/09 04:20:11;;;;;;;27.43;18.93;;;;;;;3.98;100.00;96935.34;5027214;28;104831;-65
2023/04/09 04:22:50;;;;;;;27.90;19.43;;;;;;;3.92;100.00;96930.84;5027038;28;104509;-64
2023/04/09 04:25:18;;;;;;;28.27;20.17;;;;;;;3.97;100.00;96930.25;5027512;28;101933;-64
2023/04/09 04:27:47;;;;;;;27.43;19.50;;;;;;;3.87;100.00;96940.34;5027506;28;103944;-64
2023/04/09 04:30:17;;;;;;;26.30;19.10;;;;;;;3.91;100.00;96937.13;5030611;28;105013;-64
2023/04/09 04:32:59;;;;;;;26.77;19.43;;;;;;;3.94;100.00;96946.47;5027443;28;105156;-64
2023/04/09 04:35:31;;;;;;;25.97;19.17;;;;;;;3.94;100.00;96954.34;5027128;28;103742;-64
2023/04/09 04:38:01;;;;;;;25.17;18.53;;;;;;;3.92;100.00;96958.97;5028412;27;101816;-64
2023/04/09 04:40:30;;;;;;;27.97;20.23;;;;;;;4.00;100.00;96948.31;5030872;28;104935;-64
2023/04/09 04:43:01;;;;;;;24.77;18.30;;;;;;;3.97;100.00;96959.19;5030366;28;104963;-64
2023/04/09 04:45:28;;;;;;;21.17;16.40;;;;;;;3.92;100.00;96961.59;5032166;28;101652;-64
2023/04/09 04:48:03;;;;;;;21.73;16.70;;;;;;;3.86;100.00;96957.13;5030807;28;105207;-64
2023/04/09 04:50:31;;;;;;;24.07;16.83;;;;;;;3.82;100.00;96964.59;5030424;28;105743;-64
2023/04/09 04:53:04;;;;;;;22.97;16.70;;;;;;;3.86;100.00;96965.84;5034281;28;101914;-64
2023/04/09 04:55:38;;;;;;;24.93;18.57;;;;;;;3.77;100.00;96971.47;5030192;28;105180;-64
2023/04/09 04:58:06;;;;;;;27.97;19.87;;;;;;;3.67;100.00;96965.72;5030415;28;101739;-64
2023/04/09 05:00:42;;;;;;;28.00;19.73;;;;;;;3.67;100.00;96971.00;5030618;28;104882;-64
2023/04/09 05:03:11;;;;;;;30.67;21.10;;;;;;;3.74;100.00;96971.84;5030055;28;105393;-64
2023/04/09 05:05:59;;;;;;;33.90;22.03;;;;;;;3.71;100.00;96964.34;5023693;27;102974;-64
2023/04/09 05:08:30;;;;;;;31.83;21.77;;;;;;;3.65;100.00;96971.19;5030564;28;105342;-64
2023/04/09 05:10:58;;;;;;;34.53;22.90;;;;;;;3.69;100.00;96969.81;5029987;28;105653;-64
2023/04/09 05:13:33;;;;;;;36.57;22.30;;;;;;;3.68;100.00;96977.88;5030173;28;101817;-64
2023/04/09 05:16:03;;;;;;;33.70;22.63;;;;;;;3.72;100.00;96979.13;5033552;28;105146;-64
2023/04/09 05:18:34;;;;;;;33.27;21.90;;;;;;;3.89;100.00;96970.72;5030163;28;101916;-64
2023/04/09 05:21:02;;;;;;;39.10;23.77;;;;;;;3.91;100.00;96975.78;5013103;28;104735;-63
2023/04/09 05:23:33;;;;;;;35.37;22.67;;;;;;;3.97;100.00;96973.19;5029789;28;104833;-63
2023/04/09 05:26:00;;;;;;;38.67;24.40;;;;;;;4.03;100.00;96974.22;5030244;28;101931;-63
2023/04/09 05:28:35;;;;;;;42.17;25.63;;;;;;;4.00;100.00;96977.25;5030308;28;105804;-63
2023/04/09 05:31:11;;;;;;;43.30;26.50;;;;;;;4.01;100.00;96981.50;5029500;28;105300;-63
2023/04/09 05:33:47;;;;;;;39.17;25.27;;;;;;;4.06;100.00;96976.47;5030158;28;102069;-63
2023/04/09 05:36:22;;;;;;;37.37;24.40;;;;;;;4.06;100.00;96982.56;5029977;28;105092;-63
2023/04/09 05:38:49;;;;;;;39.43;24.53;;;;;;;4.23;100.00;96983.00;5033401;28;105061;-63
2023/04/09 05:41:15;;;;;;;42.80;26.10;;;;;;;4.27;100.00;96982.41;5030281;28;104775;-63
2023/04/09 05:44:02;;;;;;;39.43;25.00;;;;;;;4.41;100.00;96984.09;5029721;28;104210;-63
2023/04/09 05:46:30;;;;;;;44.77;26.23;;;;;;;4.47;100.00;96991.22;5030450;28;101767;-63
2023/04/09 05:48:59;;;;;;;119.03;28.33;;;;;;;4.01;100.00;96992.03;5029710;27;105212;-63
2023/04/09 05:51:27;;;;;;;102.87;26.43;;;;;;;3.95;100.00;96996.25;5029135;28;105245;-63
2023/04/09 05:54:02;;;;;;;76.47;28.30;;;;;;;3.85;100.00;96995.78;5030035;28;101839;-63
2023/04/09 05:56:34;;;;;;;50.50;27.00;;;;;;;3.89;100.00;97001.47;5030083;28;104736;-63
2023/04/09 05:59:02;;;;;;;68.07;26.53;;;;;;;3.86;100.00;97000.03;5029184;28;105489;-63
2023/04/09 06:01:29;;;;;;;141.20;26.10;;;;;;;3.75;100.00;97005.84;5033452;28;101951;-63
2023/04/09 06:04:06;;;;;;;54.60;24.30;;;;;;;3.73;100.00;96996.53;5030630;27;102480;-63
2023/04/09 06:06:33;;;;;;;71.63;24.93;;;;;;;3.68;100.00;97004.16;5029868;28;101791;-63
2023/04/09 06:09:00;;;;;;;58.20;24.43;;;;;;;3.77;100.00;97008.28;5029783;28;105377;-63
2023/04/09 06:11:27;;;;;;;57.33;24.43;;;;;;;3.70;100.00;97002.97;5030631;27;102950;-63
2023/04/09 06:14:01;;;;;;;52.37;24.77;;;;;;;3.77;100.00;97009.09;5029686;28;102002;-63
2023/04/09 06:16:28;;;;;;;49.83;25.00;;;;;;;3.84;100.00;97009.13;5029700;28;104133;-63
2023/04/09 06:18:55;;;;;;;77.73;24.13;;;;;;;3.79;100.00;97007.09;5030551;27;103079;-63
2023/04/09 06:21:24;;;;;;;68.07;24.73;;;;;;;3.79;100.00;97016.78;5032663;28;101855;-63
2023/04/09 06:24:32;;;;;;;75.30;23.47;;;;;;;3.72;100.00;97015.94;5028893;28;105503;-63
2023/04/09 06:26:59;;;;;;;42.70;24.27;;;;;;;3.85;100.00;97018.66;5029809;28;101777;-63
2023/04/09 06:29:26;;;;;;;43.37;23.87;;;;;;;3.93;100.00;97018.50;5029477;28;104791;-63
2023/04/09 06:31:53;;;;;;;52.17;24.60;;;;;;;3.97;100.00;97014.47;5029048;28;105686;-63
2023/04/09 06:34:31;;;;;;;59.03;25.20;;;;;;;3.97;100.00;97019.72;5029607;28;101844;-63
2023/04/09 06:37:00;;;;;;;58.47;22.90;;;;;;;3.88;100.00;97020.91;5029609;28;103528;-63
2023/04/09 06:39:27;;;;;;;79.77;22.90;;;;;;;3.88;100.00;97021.69;5028920;28;104228;-63
2023/04/09 06:41:55;;;;;;;70.90;23.93;;;;;;;3.98;100.00;97021.38;5029504;28;102094;-63
2023/04/09 06:45:07;;;;;;;185.90;25.43;;;;;;;3.86;100.00;97023.72;5032373;28;104840;-63
2023/04/09 06:47:34;;;;;;;47.03;23.40;;;;;;;3.94;100.00;97025.38;5030748;28;101641;-63
2023/04/09 06:50:01;;;;;;;71.23;22.77;;;;;;;3.80;100.00;97028.94;5029394;28;104816;-63
2023/04/09 06:52:29;;;;;;;31.77;21.43;;;;;;;3.53;100.00;97032.38;5028534;28;104513;-63
2023/04/09 06:55:00;;;;;;;55.73;22.73;;;;;;;3.81;100.00;97025.28;5029274;28;101865;-63
2023/04/09 06:57:27;;;;;;;32.40;21.57;;;;;;;3.89;100.00;97031.25;5029205;28;104771;-63
2023/04/09 06:59:53;;;;;;;47.27;21.73;;;;;;;3.86;100.00;97036.88;5028523;28;105081;-63
2023/04/09 07:02:20;;;;;;;34.27;21.80;;;;;;;4.01;100.00;97036.75;5028363;27;101868;-63
2023/04/09 07:04:47;;;;;;;31.63;21.00;;;;;;;4.10;100.00;97035.59;5028302;28;105432;-63
2023/04/09 07:07:14;;;;;;;35.90;21.23;;;;;;;4.09;100.00;97039.25;5031491;28;105526;-63
2023/04/09 07:09:42;;;;;;;33.00;21.67;;;;;;;4.18;100.00;97036.25;5028725;28;102653;-63
2023/04/09 07:12:09;;;;;;;35.87;21.23;;;;;;;4.10;100.00;97035.59;5027847;28;105043;-63
2023/04/09 07:14:36;;;;;;;51.07;24.07;;;;;;;4.12;100.00;97037.03;5030270;27;101977;-63
2023/04/09 07:17:03;;;;;;;41.10;24.23;;;;;;;4.11;100.00;97035.41;5028787;28;105087;-63
2023/04/09 07:19:30;;;;;;;53.63;26.07;;;;;;;4.00;100.00;97028.06;5028140;28;105146;-63
2023/04/09 07:21:56;;;;;;;57.07;28.57;;;;;;;4.09;100.00;97033.97;5027646;28;101914;-63
2023/04/09 07:24:23;;;;;;;45.20;25.93;;;;;;;4.37;100.00;97037.38;5028343;28;105129;-63
2023/04/09 07:26:53;;;;;;;52.87;29.13;;;;;;;4.43;100.00;97037.38;5027771;28;105548;-63
2023/04/09 07:29:21;;;;;;;42.30;24.13;;;;;;;4.26;100.00;97036.06;5031923;28;101849;-63
2023/04/09 07:31:48;;;;;;;36.63;23.43;;;;;;;4.03;100.00;97037.38;5027651;28;105409;-63
2023/04/09 07:34:14;;;;;;;38.90;23.17;;;;;;;4.27;100.00;97032.44;5028375;28;101884;-63
2023/04/09 07:36:42;;;;;;;35.10;22.33;;;;;;;4.46;100.00;97036.16;5028198;28;105032;-63
2023/04/09 07:39:08;;;;;;;35.47;23.80;;;;;;;4.57;100.00;97043.50;5027414;28;105412;-63
2023/04/09 07:41:36;;;;;;;33.13;22.30;;;;;;;4.47;100.00;97029.91;5028147;28;101928;-63
2023/04/09 07:44:06;;;;;;;36.73;23.80;;;;;;;4.52;100.00;97040.63;5028118;28;105693;-63
2023/04/09 07:46:33;;;;;;;33.20;23.10;;;;;;;4.66;100.00;97042.34;5027699;28;105292;-63
2023/04/09 07:49:00;;;;;;;41.57;27.37;;;;;;;4.75;100.00;97049.06;5027984;28;101945;-63
2023/04/09 07:51:27;;;;;;;35.93;23.77;;;;;;;4.44;100.00;97046.91;5032303;27;101748;-63
2023/04/09 07:53:54;;;;;;;31.50;22.23;;;;;;;4.83;100.00;97043.59;5028988;27;101825;-63
2023/04/09 07:56:21;;;;;;;45.20;29.00;;;;;;;5.11;100.00;97042.44;5028367;28;105116;-63
2023/04/09 07:58:49;;;;;;;34.83;23.17;;;;;;;5.20;100.00;97043.06;5027292;28;105068;-63
2023/04/09 08:01:20;;;;;;;31.33;23.00;;;;;;;5.27;100.00;97041.25;5029507;27;101798;-63
2023/04/09 08:03:48;;;;;;;31.33;21.77;;;;;;;5.39;100.00;97035.19;5027496;28;104219;-63
2023/04/09 08:06:15;;;;;;;29.37;21.73;;;;;;;5.54;100.00;97042.88;5027104;28;105752;-63
2023/04/09 08:08:43;;;;;;;26.53;20.00;;;;;;;5.54;100.00;97042.88;5027861;28;101851;-63
2023/04/09 08:11:10;;;;;;;28.10;20.27;;;;;;;5.31;100.00;97048.56;5027848;28;105414;-63
2023/04/09 08:13:39;;;;;;;25.97;19.47;;;;;;;5.28;100.00;97041.06;5032313;27;105176;-63
2023/04/09 08:16:06;;;;;;;27.83;20.20;;;;;;;5.39;100.00;97042.25;5031411;28;105207;-63
2023/04/09 08:18:34;;;;;;;25.50;19.63;;;;;;;5.78;100.00;97044.94;5030669;28;105224;-63
2023/04/09 08:21:05;;;;;;;28.13;20.50;;;;;;;5.82;100.00;97041.69;5030776;28;102074;-63
2023/04/09 08:23:31;;;;;;;25.03;20.30;;;;;;;5.91;100.00;97050.22;5032814;27;102340;-63
2023/04/09 08:25:58;;;;;;;28.17;21.53;;;;;;;6.10;100.00;97044.06;5030600;28;106158;-63
2023/04/09 08:28:25;;;;;;;30.60;21.27;;;;;;;6.12;100.00;97039.41;5031325;28;101761;-63
2023/04/09 08:30:52;;;;;;;25.17;19.47;;;;;;;5.60;100.00;97047.34;5031275;28;104791;-63
2023/04/09 08:33:19;;;;;;;26.83;20.10;;;;;;;5.64;100.00;97041.47;5033908;28;105175;-63
2023/04/09 08:35:47;;;;;;;24.30;19.43;;;;;;;6.08;100.00;97040.84;5030844;28;103576;-63
2023/04/09 08:38:16;;;;;;;24.63;19.30;;;;;;;6.46;100.00;97044.38;5030443;28;105774;-63
2023/04/09 08:40:43;;;;;;;24.70;19.23;;;;;;;6.59;100.00;97031.94;5031096;28;102183;-63
2023/04/09 08:43:14;;;;;;;23.70;18.83;;;;;;;6.80;100.00;97030.81;5030733;28;105254;-63
2023/04/09 08:45:41;;;;;;;23.93;18.83;;;;;;;6.74;100.00;97031.66;5030387;28;105848;-63
2023/04/09 08:48:10;;;;;;;24.47;19.03;;;;;;;6.63;100.00;97035.78;5032260;27;101999;-64
2023/04/09 08:50:37;;;;;;;26.37;20.03;;;;;;;6.43;100.00;97045.63;5030707;28;105153;-63
2023/04/09 08:53:08;;;;;;;24.73;19.77;;;;;;;6.66;100.00;97048.56;5030246;28;105408;-69
2023/04/09 08:55:36;;;;;;;23.13;17.70;;;;;;;6.19;100.00;97053.41;5033857;28;102079;-65
2023/04/09 08:58:06;;;;;;;24.13;18.97;;;;;;;6.37;100.00;97058.84;5029912;28;105909;-69
2023/04/09 09:00:33;;;;;;;23.23;19.27;;;;;;;6.76;100.00;97051.59;5030758;28;102036;-63
2023/04/09 09:03:05;;;;;;;23.80;19.03;;;;;;;7.07;100.00;97053.47;5030302;28;104942;-65
2023/04/09 09:05:36;;;;;;;21.30;17.43;;;;;;;7.48;100.00;97051.16;5030166;28;104948;-64
2023/04/09 09:08:05;;;;;;;22.63;17.70;;;;;;;7.55;100.00;97044.00;5030685;28;101953;-65
2023/04/09 09:10:44;;;;;;;22.57;17.83;;;;;;;7.60;100.00;97039.69;5030500;28;105011;-64
2023/04/09 09:13:19;;;;;;;21.73;17.43;;;;;;;8.04;100.00;97041.31;5030051;28;105708;-64
2023/04/09 09:15:48;;;;;;;22.73;17.83;;;;;;;7.99;100.00;97043.81;5030405;28;101884;-64
2023/04/09 09:18:15;;;;;;;16.93;14.83;;;;;;;8.04;100.00;97044.78;5033352;28;104809;-64
2023/04/09 09:20:42;;;;;;;17.03;14.33;;;;;;;7.87;100.00;97042.91;5029806;28;102119;-64
2023/04/09 09:23:12;;;;;;;14.90;13.30;;;;;;;7.63;100.00;97051.69;5030351;28;104773;-62
2023/04/09 09:25:42;;;;;;;15.57;13.30;;;;;;;8.01;100.00;97049.72;5029552;28;105395;-63
2023/04/09 09:28:10;;;;;;;14.87;13.07;;;;;;;8.23;100.00;97038.50;5030011;28;102671;-72
2023/04/09 09:30:38;;;;;;;17.23;14.83;;;;;;;8.41;100.00;97043.00;5030143;28;104988;-64
2023/04/09 09:33:07;;;;;;;17.60;15.17;;;;;;;8.22;100.00;97039.53;5029598;28;105242;-64
2023/04/09 09:35:52;;;;;;;18.47;14.90;;;;;;;8.11;100.00;97042.06;5030092;28;101801;-64
2023/04/09 09:38:21;;;;;;;17.43;15.00;;;;;;;8.03;100.00;97039.72;5030061;28;105522;-64
2023/04/09 09:40:49;;;;;;;15.73;13.53;;;;;;;7.73;100.00;97036.09;5033100;28;105771;-64
2023/04/09 09:43:16;;;;;;;15.53;13.73;;;;;;;8.04;100.00;97042.13;5029812;28;105511;-64
2023/04/09 09:45:46;;;;;;;14.23;12.73;;;;;;;8.51;100.00;97030.06;5029467;28;105146;-64
2023/04/09 09:48:13;;;;;;;14.20;12.57;;;;;;;8.34;100.00;97029.03;5029853;28;101815;-64
2023/04/09 09:50:43;;;;;;;14.57;13.03;;;;;;;9.13;100.00;97029.66;5029881;28;104977;-64
2023/04/09 09:53:11;;;;;;;12.93;11.53;;;;;;;9.15;100.00;97022.25;5029160;28;104976;-64
2023/04/09 09:55:41;;;;;;;13.83;12.43;;;;;;;9.77;100.00;97021.72;5029967;28;102037;-64
2023/04/09 09:58:12;;;;;;;12.70;11.40;;;;;;;9.70;100.00;97024.47;5029723;28;104880;-64
2023/04/09 10:00:41;;;;;;;12.63;11.33;;;;;;;9.77;100.00;97022.53;5029455;28;105068;-65
2023/04/09 10:03:14;;;;;;;11.33;10.23;;;;;;;10.20;100.00;97014.25;5032829;28;101990;-64
2023/04/09 10:05:42;;;;;;;11.43;10.20;;;;;;;10.16;100.00;97013.09;5029264;28;104230;-65
2023/04/09 10:08:10;;;;;;;11.77;10.57;;;;;;;10.62;100.00;97013.00;5029699;28;101924;-65
2023/04/09 10:10:41;;;;;;;10.83;9.83;;;;;;;10.44;100.00;97013.19;5029767;28;105185;-65
2023/04/09 10:13:13;;;;;;;11.73;10.57;;;;;;;10.45;100.00;97007.63;5030165;28;105402;-65
2023/04/09 10:15:41;;;;;;;11.20;10.10;;;;;;;10.45;100.00;97012.13;5029534;28;101769;-64
2023/04/09 10:18:08;;;;;;;11.50;10.30;;;;;;;10.44;100.00;97005.19;5029564;28;105631;-64
2023/04/09 10:20:45;;;;;;;11.60;10.50;;;;;;;10.45;100.00;97001.50;5028254;28;105461;-65
2023/04/09 10:23:19;;;;;;;11.67;10.47;;;;;;;10.67;100.00;97003.28;5030923;28;102215;-65
2023/04/09 10:25:48;;;;;;;12.37;11.17;;;;;;;10.81;100.00;97003.84;5032346;28;105403;-65
2023/04/09 10:28:17;;;;;;;11.33;10.23;;;;;;;10.72;100.00;96999.91;5030842;27;102007;-65
2023/04/09 10:30:44;;;;;;;11.90;10.70;;;;;;;10.15;100.00;97006.16;5028968;28;104985;-65
2023/04/09 10:33:13;;;;;;;11.30;10.20;;;;;;;10.35;100.00;97003.97;5028621;28;105533;-65
2023/04/09 10:35:40;;;;;;;10.23;9.23;;;;;;;10.85;100.00;97003.13;5028291;27;101931;-65
2023/04/09 10:38:10;;;;;;;11.20;9.90;;;;;;;11.24;100.00;97001.47;5030281;28;104887;-65
2023/04/09 10:40:41;;;;;;;10.57;9.47;;;;;;;11.37;100.00;97001.97;5029353;28;105429;-65
2023/04/09 10:43:11;;;;;;;11.03;9.87;;;;;;;10.58;100.00;97001.25;5031549;27;101699;-65
2023/04/09 10:45:41;;;;;;;12.17;10.97;;;;;;;10.57;100.00;96999.63;5032811;28;104864;-65
2023/04/09 10:48:13;;;;;;;11.70;10.50;;;;;;;10.63;100.00;96999.47;5028949;28;101974;-65
2023/04/09 10:50:42;;;;;;;11.40;10.30;;;;;;;10.93;100.00;97007.25;5029093;28;104813;-65
2023/04/09 10:53:21;;;;;;;12.13;10.93;;;;;;;10.51;100.00;97000.53;5028430;28;105773;-65
2023/04/09 10:55:50;;;;;;;12.00;10.80;;;;;;;10.68;100.00;96996.94;5028753;28;101840;-65
2023/04/09 10:58:18;;;;;;;11.47;10.37;;;;;;;10.76;100.00;96998.41;5028834;28;104986;-65
2023/04/09 11:00:47;;;;;;;11.03;9.93;;;;;;;10.33;100.00;96998.88;5028029;28;104238;-65
2023/04/09 11:03:21;;;;;;;12.70;11.40;;;;;;;9.71;100.00;96993.44;5030912;28;101863;-65
2023/04/09 11:05:52;;;;;;;11.20;10.10;;;;;;;10.15;100.00;96995.53;5028763;28;104770;-65
2023/04/09 11:08:20;;;;;;;10.53;9.47;;;;;;;10.32;100.00;96991.94;5031679;28;105718;-65
2023/04/09 11:10:48;;;;;;;11.07;9.97;;;;;;;10.32;100.00;97002.56;5028962;28;105693;-65
2023/04/09 11:13:17;;;;;;;11.00;9.93;;;;;;;10.00;100.00;96997.81;5027992;28;105390;-65
2023/04/09 11:15:45;;;;;;;10.87;9.77;;;;;;;10.53;100.00;96996.63;5029599;28;101703;-65
2023/04/09 11:18:19;;;;;;;20.37;16.63;;;;;;;10.58;100.00;96985.28;5029433;28;104742;-65
2023/04/09 11:20:46;;;;;;;10.43;9.43;;;;;;;9.95;100.00;96990.56;5027254;28;105194;-65